sensor_id;sensor_type;location;lat;lon;timestamp;pressure;altitude;pressure_sealevel;temperature;humidity
64668;BME280;51077;42.716;23.344;2023-09-19T00:01:28;95765.84;;;18.46;56.96
64668;BME280;51077;42.716;23.344;2023-09-19T00:03:55;95767.91;;;18.45;56.97
64668;BME280;51077;42.716;23.344;2023-09-19T00:06:22;95775.50;;;18.45;56.82
64668;BME280;51077;42.716;23.344;2023-09-19T00:08:51;95773.44;;;18.45;56.98
64668;BME280;51077;42.716;23.344;2023-09-19T00:11:17;95763.47;;;18.42;57.24
64668;BME280;51077;42.716;23.344;2023-09-19T00:13:43;95763.06;;;18.38;57.35
64668;BME280;51077;42.716;23.344;2023-09-19T00:16:11;95765.66;;;18.36;57.37
64668;BME280;51077;42.716;23.344;2023-09-19T00:18:38;95758.63;;;18.35;57.48
64668;BME280;51077;42.716;23.344;2023-09-19T00:21:03;95763.78;;;18.31;57.55
64668;BME280;51077;42.716;23.344;2023-09-19T00:23:32;95757.50;;;18.30;57.58
64668;BME280;51077;42.716;23.344;2023-09-19T00:25:59;95763.78;;;18.31;57.72
64668;BME280;51077;42.716;23.344;2023-09-19T00:28:24;95762.09;;;18.28;57.74
64668;BME280;51077;42.716;23.344;2023-09-19T00:30:50;95758.41;;;18.25;57.92
64668;BME280;51077;42.716;23.344;2023-09-19T00:33:15;95751.56;;;18.26;57.89
64668;BME280;51077;42.716;23.344;2023-09-19T00:36:01;95751.16;;;18.15;58.52
64668;BME280;51077;42.716;23.344;2023-09-19T00:38:30;95742.81;;;18.07;58.74
64668;BME280;51077;42.716;23.344;2023-09-19T00:40:55;95738.53;;;18.06;58.59
64668;BME280;51077;42.716;23.344;2023-09-19T00:43:25;95738.53;;;18.06;58.86
64668;BME280;51077;42.716;23.344;2023-09-19T00:45:52;95731.66;;;17.99;58.96
64668;BME280;51077;42.716;23.344;2023-09-19T00:48:22;95733.88;;;18.01;59.15
64668;BME280;51077;42.716;23.344;2023-09-19T00:50:48;95740.91;;;18.02;58.84
64668;BME280;51077;42.716;23.344;2023-09-19T00:53:18;95742.41;;;18.03;58.96
64668;BME280;51077;42.716;23.344;2023-09-19T00:55:45;95741.28;;;17.98;58.96
64668;BME280;51077;42.716;23.344;2023-09-19T00:58:11;95739.78;;;17.97;59.11
64668;BME280;51077;42.716;23.344;2023-09-19T01:00:37;95735.75;;;17.98;59.16
64668;BME280;51077;42.716;23.344;2023-09-19T01:03:03;95741.09;;;17.96;59.26
64668;BME280;51077;42.716;23.344;2023-09-19T01:05:29;95740.69;;;17.92;59.58
64668;BME280;51077;42.716;23.344;2023-09-19T01:07:55;95749.03;;;17.92;59.24
64668;BME280;51077;42.716;23.344;2023-09-19T01:10:21;95746.47;;;17.94;59.16
64668;BME280;51077;42.716;23.344;2023-09-19T01:21:27;95741.44;;;17.85;59.85
64668;BME280;51077;42.716;23.344;2023-09-19T01:26:49;95751.25;;;17.86;59.52
64668;BME280;51077;42.716;23.344;2023-09-19T01:29:47;95750.50;;;17.86;59.54
64668;BME280;51077;42.716;23.344;2023-09-19T01:32:17;95747.50;;;17.83;59.63
64668;BME280;51077;42.716;23.344;2023-09-19T01:34:56;95747.72;;;17.86;59.42
64668;BME280;51077;42.716;23.344;2023-09-19T01:37:24;95746.22;;;17.84;59.62
64668;BME280;51077;42.716;23.344;2023-09-19T01:40:07;95742.69;;;17.84;59.62
64668;BME280;51077;42.716;23.344;2023-09-19T01:51:20;95737.97;;;17.71;60.12
64668;BME280;51077;42.716;23.344;2023-09-19T01:54:01;95744.84;;;17.70;60.15
64668;BME280;51077;42.716;23.344;2023-09-19T01:56:44;95741.88;;;17.68;60.11
64668;BME280;51077;42.716;23.344;2023-09-19T01:59:17;95752.25;;;17.68;60.02
64668;BME280;51077;42.716;23.344;2023-09-19T02:01:47;95751.09;;;17.63;60.35
64668;BME280;51077;42.716;23.344;2023-09-19T02:04:14;95757.41;;;17.64;60.27
64668;BME280;51077;42.716;23.344;2023-09-19T02:06:40;95751.25;;;17.57;60.38
64668;BME280;51077;42.716;23.344;2023-09-19T02:09:06;95759.56;;;17.57;60.47
64668;BME280;51077;42.716;23.344;2023-09-19T02:11:32;95751.81;;;17.56;60.60
64668;BME280;51077;42.716;23.344;2023-09-19T02:13:57;95746.59;;;17.52;60.80
64668;BME280;51077;42.716;23.344;2023-09-19T02:16:24;95747.09;;;17.43;61.07
64668;BME280;51077;42.716;23.344;2023-09-19T02:18:50;95743.88;;;17.31;61.64
64668;BME280;51077;42.716;23.344;2023-09-19T02:21:16;95741.44;;;17.28;61.63
64668;BME280;51077;42.716;23.344;2023-09-19T02:23:43;95740.91;;;17.29;61.57
64668;BME280;51077;42.716;23.344;2023-09-19T02:26:08;95744.44;;;17.30;61.39
64668;BME280;51077;42.716;23.344;2023-09-19T02:28:34;95742.41;;;17.30;61.52
64668;BME280;51077;42.716;23.344;2023-09-19T02:31:01;95736.06;;;17.22;61.68
64668;BME280;51077;42.716;23.344;2023-09-19T02:33:26;95730.44;;;17.15;62.04
64668;BME280;51077;42.716;23.344;2023-09-19T02:35:55;95723.44;;;17.14;61.87
64668;BME280;51077;42.716;23.344;2023-09-19T02:38:27;95721.94;;;17.13;61.96
64668;BME280;51077;42.716;23.344;2023-09-19T02:40:54;95724.91;;;17.15;62.01
64668;BME280;51077;42.716;23.344;2023-09-19T02:43:20;95717.88;;;17.14;61.87
64668;BME280;51077;42.716;23.344;2023-09-19T02:45:46;95713.81;;;17.15;61.78
64668;BME280;51077;42.716;23.344;2023-09-19T02:48:12;95714.56;;;17.15;61.69
64668;BME280;51077;42.716;23.344;2023-09-19T02:50:37;95710.50;;;17.16;61.79
64668;BME280;51077;42.716;23.344;2023-09-19T02:53:04;95705.50;;;17.15;61.83
64668;BME280;51077;42.716;23.344;2023-09-19T02:55:29;95709.38;;;17.12;61.94
64668;BME280;51077;42.716;23.344;2023-09-19T02:57:55;95706.59;;;17.12;61.90
64668;BME280;51077;42.716;23.344;2023-09-19T03:00:22;95710.13;;;17.12;61.96
64668;BME280;51077;42.716;23.344;2023-09-19T03:02:55;95715.84;;;17.14;62.01
64668;BME280;51077;42.716;23.344;2023-09-19T03:05:22;95707.53;;;17.14;61.87
64668;BME280;51077;42.716;23.344;2023-09-19T03:07:49;95698.81;;;17.10;62.12
64668;BME280;51077;42.716;23.344;2023-09-19T03:10:16;95696.78;;;17.11;61.89
64668;BME280;51077;42.716;23.344;2023-09-19T03:12:42;95701.59;;;17.10;62.02
64668;BME280;51077;42.716;23.344;2023-09-19T03:15:08;95696.94;;;17.05;61.94
64668;BME280;51077;42.716;23.344;2023-09-19T03:17:36;95698.22;;;17.04;62.08
64668;BME280;51077;42.716;23.344;2023-09-19T03:20:03;95690.25;;;17.00;62.26
64668;BME280;51077;42.716;23.344;2023-09-19T03:22:29;95686.72;;;17.00;62.24
64668;BME280;51077;42.716;23.344;2023-09-19T03:24:55;95687.06;;;16.96;62.28
64668;BME280;51077;42.716;23.344;2023-09-19T03:27:20;95684.31;;;16.96;62.33
64668;BME280;51077;42.716;23.344;2023-09-19T03:29:46;95688.38;;;16.95;62.33
64668;BME280;51077;42.716;23.344;2023-09-19T03:32:12;95688.03;;;16.99;62.30
64668;BME280;51077;42.716;23.344;2023-09-19T03:34:39;95695.59;;;16.98;62.15
64668;BME280;51077;42.716;23.344;2023-09-19T03:37:09;95702.63;;;16.99;62.32
64668;BME280;51077;42.716;23.344;2023-09-19T03:39:34;95698.56;;;17.00;62.05
64668;BME280;51077;42.716;23.344;2023-09-19T03:42:01;95702.81;;;17.01;62.00
64668;BME280;51077;42.716;23.344;2023-09-19T03:44:26;95712.44;;;17.00;62.03
64668;BME280;51077;42.716;23.344;2023-09-19T03:46:51;95707.63;;;17.01;62.00
64668;BME280;51077;42.716;23.344;2023-09-19T03:49:17;95704.84;;;17.01;61.92
64668;BME280;51077;42.716;23.344;2023-09-19T03:51:42;95716.69;;;17.01;61.93
64668;BME280;51077;42.716;23.344;2023-09-19T03:54:07;95708.56;;;17.03;62.07
64668;BME280;51077;42.716;23.344;2023-09-19T03:56:33;95717.09;;;17.05;62.17
64668;BME280;51077;42.716;23.344;2023-09-19T03:58:58;95722.44;;;17.03;62.14
64668;BME280;51077;42.716;23.344;2023-09-19T04:01:24;95715.19;;;17.00;61.97
64668;BME280;51077;42.716;23.344;2023-09-19T04:03:49;95726.09;;;16.98;62.01
64668;BME280;51077;42.716;23.344;2023-09-19T04:06:17;95720.91;;;16.95;62.32
64668;BME280;51077;42.716;23.344;2023-09-19T04:08:42;95718.88;;;16.95;62.22
64668;BME280;51077;42.716;23.344;2023-09-19T04:11:09;95727.59;;;16.99;61.93
64668;BME280;51077;42.716;23.344;2023-09-19T04:13:35;95733.69;;;16.98;61.80
64668;BME280;51077;42.716;23.344;2023-09-19T04:16:01;95731.66;;;16.98;62.05
64668;BME280;51077;42.716;23.344;2023-09-19T04:18:27;95742.38;;;17.02;61.80
64668;BME280;51077;42.716;23.344;2023-09-19T04:20:53;95738.53;;;17.05;61.84
64668;BME280;51077;42.716;23.344;2023-09-19T04:23:19;95735.19;;;17.06;61.75
64668;BME280;51077;42.716;23.344;2023-09-19T04:25:47;95726.00;;;17.12;61.76
64668;BME280;51077;42.716;23.344;2023-09-19T04:28:13;95723.47;;;17.21;61.44
64668;BME280;51077;42.716;23.344;2023-09-19T04:30:39;95720.38;;;17.32;61.31
64668;BME280;51077;42.716;23.344;2023-09-19T04:33:08;95727.88;;;17.45;60.90
64668;BME280;51077;42.716;23.344;2023-09-19T04:35:34;95724.06;;;17.56;60.61
64668;BME280;51077;42.716;23.344;2023-09-19T04:38:00;95732.03;;;17.67;60.49
64668;BME280;51077;42.716;23.344;2023-09-19T04:40:25;95729.34;;;17.75;60.22
64668;BME280;51077;42.716;23.344;2023-09-19T04:42:55;95733.63;;;17.83;60.04
64668;BME280;51077;42.716;23.344;2023-09-19T04:45:24;95730.69;;;17.89;59.80
64668;BME280;51077;42.716;23.344;2023-09-19T04:47:49;95729.56;;;17.84;59.70
64668;BME280;51077;42.716;23.344;2023-09-19T04:50:15;95717.69;;;17.76;59.89
64668;BME280;51077;42.716;23.344;2023-09-19T04:52:43;95720.81;;;17.73;60.14
64668;BME280;51077;42.716;23.344;2023-09-19T04:55:15;95713.75;;;17.72;60.25
64668;BME280;51077;42.716;23.344;2023-09-19T04:57:43;95713.22;;;17.73;60.37
64668;BME280;51077;42.716;23.344;2023-09-19T05:00:10;95716.06;;;17.81;60.13
64668;BME280;51077;42.716;23.344;2023-09-19T05:02:39;95716.78;;;17.89;59.97
64668;BME280;51077;42.716;23.344;2023-09-19T05:05:07;95717.38;;;17.95;59.83
64668;BME280;51077;42.716;23.344;2023-09-19T05:07:33;95716.84;;;18.04;59.46
64668;BME280;51077;42.716;23.344;2023-09-19T05:09:59;95715.59;;;18.13;59.42
64668;BME280;51077;42.716;23.344;2023-09-19T05:12:26;95709.13;;;18.26;59.12
64668;BME280;51077;42.716;23.344;2023-09-19T05:14:52;95708.41;;;18.41;58.56
64668;BME280;51077;42.716;23.344;2023-09-19T05:17:18;95711.75;;;18.54;58.27
64668;BME280;51077;42.716;23.344;2023-09-19T05:19:43;95707.13;;;18.57;58.09
64668;BME280;51077;42.716;23.344;2023-09-19T05:22:08;95719.38;;;18.62;57.83
64668;BME280;51077;42.716;23.344;2023-09-19T05:24:34;95721.47;;;18.76;57.75
64668;BME280;51077;42.716;23.344;2023-09-19T05:26:59;95721.66;;;18.94;57.17
64668;BME280;51077;42.716;23.344;2023-09-19T05:29:25;95712.34;;;19.06;56.56
64668;BME280;51077;42.716;23.344;2023-09-19T05:31:51;95706.22;;;19.16;56.25
64668;BME280;51077;42.716;23.344;2023-09-19T05:34:16;95704.34;;;19.26;55.86
64668;BME280;51077;42.716;23.344;2023-09-19T05:36:42;95697.09;;;19.38;55.73
64668;BME280;51077;42.716;23.344;2023-09-19T05:39:08;95693.16;;;19.49;55.44
64668;BME280;51077;42.716;23.344;2023-09-19T05:41:35;95694.09;;;19.51;55.31
64668;BME280;51077;42.716;23.344;2023-09-19T05:44:02;95699.81;;;19.53;55.27
64668;BME280;51077;42.716;23.344;2023-09-19T05:46:28;95690.94;;;19.47;55.23
64668;BME280;51077;42.716;23.344;2023-09-19T05:48:55;95691.25;;;19.67;54.87
64668;BME280;51077;42.716;23.344;2023-09-19T05:51:22;95696.78;;;19.82;54.49
64668;BME280;51077;42.716;23.344;2023-09-19T05:53:48;95693.00;;;19.95;54.20
64668;BME280;51077;42.716;23.344;2023-09-19T05:56:14;95696.28;;;20.08;53.85
64668;BME280;51077;42.716;23.344;2023-09-19T05:58:40;95697.09;;;20.26;53.68
64668;BME280;51077;42.716;23.344;2023-09-19T06:01:08;95696.59;;;20.45;52.91
64668;BME280;51077;42.716;23.344;2023-09-19T06:03:34;95689.66;;;20.62;52.62
64668;BME280;51077;42.716;23.344;2023-09-19T06:06:03;95686.66;;;20.84;52.09
64668;BME280;51077;42.716;23.344;2023-09-19T06:08:29;95685.72;;;20.90;51.36
64668;BME280;51077;42.716;23.344;2023-09-19T06:10:56;95674.22;;;20.86;51.47
64668;BME280;51077;42.716;23.344;2023-09-19T06:13:22;95673.69;;;20.79;51.46
64668;BME280;51077;42.716;23.344;2023-09-19T06:15:47;95677.94;;;20.80;51.25
64668;BME280;51077;42.716;23.344;2023-09-19T06:18:13;95685.19;;;20.83;51.24
64668;BME280;51077;42.716;23.344;2023-09-19T06:20:46;95685.81;;;20.99;50.92
64668;BME280;51077;42.716;23.344;2023-09-19T06:23:11;95681.13;;;21.02;50.82
64668;BME280;51077;42.716;23.344;2023-09-19T06:25:36;95682.69;;;21.13;50.78
64668;BME280;51077;42.716;23.344;2023-09-19T06:28:02;95675.97;;;21.16;50.66
64668;BME280;51077;42.716;23.344;2023-09-19T06:30:30;95682.44;;;21.18;50.74
64668;BME280;51077;42.716;23.344;2023-09-19T06:32:56;95674.75;;;21.26;50.56
64668;BME280;51077;42.716;23.344;2023-09-19T06:35:22;95677.13;;;21.30;50.40
64668;BME280;51077;42.716;23.344;2023-09-19T06:37:48;95676.66;;;21.41;50.38
64668;BME280;51077;42.716;23.344;2023-09-19T06:40:14;95682.75;;;21.65;49.92
64668;BME280;51077;42.716;23.344;2023-09-19T06:42:41;95674.81;;;21.88;49.71
64668;BME280;51077;42.716;23.344;2023-09-19T06:45:08;95680.66;;;22.09;49.04
64668;BME280;51077;42.716;23.344;2023-09-19T06:47:36;95682.53;;;22.24;48.47
64668;BME280;51077;42.716;23.344;2023-09-19T06:50:02;95681.09;;;22.33;48.38
64668;BME280;51077;42.716;23.344;2023-09-19T06:52:28;95676.69;;;22.30;47.79
64668;BME280;51077;42.716;23.344;2023-09-19T06:54:53;95684.66;;;22.33;47.95
64668;BME280;51077;42.716;23.344;2023-09-19T06:57:19;95680.22;;;22.30;47.77
64668;BME280;51077;42.716;23.344;2023-09-19T06:59:45;95686.84;;;22.25;47.64
64668;BME280;51077;42.716;23.344;2023-09-19T07:02:11;95693.63;;;22.32;47.41
64668;BME280;51077;42.716;23.344;2023-09-19T07:04:36;95689.41;;;22.41;47.13
64668;BME280;51077;42.716;23.344;2023-09-19T07:07:02;95691.91;;;22.46;46.97
64668;BME280;51077;42.716;23.344;2023-09-19T07:09:27;95694.03;;;22.55;46.90
64668;BME280;51077;42.716;23.344;2023-09-19T07:11:53;95688.16;;;22.61;46.73
64668;BME280;51077;42.716;23.344;2023-09-19T07:14:19;95681.28;;;22.72;46.55
64668;BME280;51077;42.716;23.344;2023-09-19T07:16:44;95690.56;;;22.74;46.53
64668;BME280;51077;42.716;23.344;2023-09-19T07:19:10;95691.31;;;22.75;46.46
64668;BME280;51077;42.716;23.344;2023-09-19T07:21:36;95685.28;;;22.78;46.48
64668;BME280;51077;42.716;23.344;2023-09-19T07:24:03;95687.66;;;22.82;46.33
64668;BME280;51077;42.716;23.344;2023-09-19T07:26:29;95686.78;;;22.89;46.32
64668;BME280;51077;42.716;23.344;2023-09-19T07:28:54;95681.50;;;22.93;46.13
64668;BME280;51077;42.716;23.344;2023-09-19T07:31:21;95681.69;;;22.95;45.74
64668;BME280;51077;42.716;23.344;2023-09-19T07:33:48;95685.03;;;22.94;45.77
64668;BME280;51077;42.716;23.344;2023-09-19T07:36:13;95685.94;;;22.96;45.79
64668;BME280;51077;42.716;23.344;2023-09-19T07:38:40;95678.16;;;23.04;45.52
64668;BME280;51077;42.716;23.344;2023-09-19T07:41:06;95681.56;;;23.13;45.58
64668;BME280;51077;42.716;23.344;2023-09-19T07:43:34;95682.13;;;23.11;45.25
64668;BME280;51077;42.716;23.344;2023-09-19T07:46:03;95685.53;;;23.10;45.08
64668;BME280;51077;42.716;23.344;2023-09-19T07:48:29;95690.22;;;23.07;45.06
64668;BME280;51077;42.716;23.344;2023-09-19T07:50:54;95684.63;;;23.07;45.01
64668;BME280;51077;42.716;23.344;2023-09-19T07:53:20;95684.94;;;23.11;44.97
64668;BME280;51077;42.716;23.344;2023-09-19T07:55:45;95687.63;;;23.19;44.93
64668;BME280;51077;42.716;23.344;2023-09-19T07:58:13;95684.38;;;23.32;44.72
64668;BME280;51077;42.716;23.344;2023-09-19T08:00:38;95683.38;;;23.47;44.44
64668;BME280;51077;42.716;23.344;2023-09-19T08:03:04;95685.72;;;23.50;44.13
64668;BME280;51077;42.716;23.344;2023-09-19T08:05:31;95684.00;;;23.65;43.90
64668;BME280;51077;42.716;23.344;2023-09-19T08:07:58;95685.00;;;23.79;43.55
64668;BME280;51077;42.716;23.344;2023-09-19T08:10:24;95669.50;;;23.88;43.27
64668;BME280;51077;42.716;23.344;2023-09-19T08:12:52;95667.44;;;23.88;43.06
64668;BME280;51077;42.716;23.344;2023-09-19T08:15:23;95665.63;;;24.02;42.90
64668;BME280;51077;42.716;23.344;2023-09-19T08:17:48;95669.59;;;24.19;42.55
64668;BME280;51077;42.716;23.344;2023-09-19T08:20:14;95669.09;;;24.32;42.21
64668;BME280;51077;42.716;23.344;2023-09-19T08:22:48;95666.28;;;24.51;41.80
64668;BME280;51077;42.716;23.344;2023-09-19T08:25:15;95656.53;;;24.52;41.57
64668;BME280;51077;42.716;23.344;2023-09-19T08:27:43;95653.06;;;24.64;41.57
64668;BME280;51077;42.716;23.344;2023-09-19T08:30:13;95652.44;;;24.75;41.50
64668;BME280;51077;42.716;23.344;2023-09-19T08:32:39;95657.53;;;24.88;41.36
64668;BME280;51077;42.716;23.344;2023-09-19T08:35:08;95661.16;;;25.00;41.45
64668;BME280;51077;42.716;23.344;2023-09-19T08:37:34;95667.75;;;25.15;41.21
64668;BME280;51077;42.716;23.344;2023-09-19T08:39:59;95670.16;;;25.30;40.86
64668;BME280;51077;42.716;23.344;2023-09-19T08:42:25;95672.44;;;25.43;40.58
64668;BME280;51077;42.716;23.344;2023-09-19T08:44:50;95661.56;;;25.49;40.11
64668;BME280;51077;42.716;23.344;2023-09-19T08:47:16;95662.56;;;25.54;39.70
64668;BME280;51077;42.716;23.344;2023-09-19T08:49:59;95658.41;;;25.55;39.88
64668;BME280;51077;42.716;23.344;2023-09-19T08:52:32;95652.31;;;25.58;39.64
64668;BME280;51077;42.716;23.344;2023-09-19T08:55:02;95652.38;;;25.70;39.53
64668;BME280;51077;42.716;23.344;2023-09-19T08:57:36;95641.88;;;25.71;39.17
64668;BME280;51077;42.716;23.344;2023-09-19T09:00:05;95654.09;;;25.75;39.26
64668;BME280;51077;42.716;23.344;2023-09-19T09:02:38;95647.91;;;25.77;39.20
64668;BME280;51077;42.716;23.344;2023-09-19T09:05:11;95643.59;;;25.76;39.39
64668;BME280;51077;42.716;23.344;2023-09-19T09:07:40;95640.53;;;25.72;39.57
64668;BME280;51077;42.716;23.344;2023-09-19T09:10:06;95647.22;;;25.67;39.58
64668;BME280;51077;42.716;23.344;2023-09-19T09:12:33;95646.75;;;25.70;39.36
64668;BME280;51077;42.716;23.344;2023-09-19T09:15:02;95651.47;;;25.77;39.32
64668;BME280;51077;42.716;23.344;2023-09-19T09:17:29;95645.53;;;26.06;38.98
64668;BME280;51077;42.716;23.344;2023-09-19T09:19:55;95637.50;;;26.24;38.77
64668;BME280;51077;42.716;23.344;2023-09-19T09:22:21;95634.50;;;26.44;37.99
64668;BME280;51077;42.716;23.344;2023-09-19T09:24:57;95630.69;;;26.63;37.74
64668;BME280;51077;42.716;23.344;2023-09-19T09:27:30;95633.38;;;26.84;37.54
64668;BME280;51077;42.716;23.344;2023-09-19T09:29:56;95623.69;;;26.99;37.16
64668;BME280;51077;42.716;23.344;2023-09-19T09:32:29;95623.56;;;27.09;36.68
64668;BME280;51077;42.716;23.344;2023-09-19T09:34:56;95615.19;;;27.34;36.28
64668;BME280;51077;42.716;23.344;2023-09-19T09:37:22;95616.16;;;27.39;35.88
64668;BME280;51077;42.716;23.344;2023-09-19T09:39:56;95605.16;;;27.56;35.94
64668;BME280;51077;42.716;23.344;2023-09-19T09:42:30;95614.72;;;27.89;35.32
64668;BME280;51077;42.716;23.344;2023-09-19T09:45:26;95597.78;;;27.89;35.24
64668;BME280;51077;42.716;23.344;2023-09-19T09:47:58;95598.06;;;27.81;35.24
64668;BME280;51077;42.716;23.344;2023-09-19T09:50:32;95592.34;;;27.79;35.24
64668;BME280;51077;42.716;23.344;2023-09-19T09:56:03;95590.50;;;27.72;35.13
64668;BME280;51077;42.716;23.344;2023-09-19T09:58:33;95584.53;;;27.66;35.61
64668;BME280;51077;42.716;23.344;2023-09-19T10:00:59;95586.25;;;27.59;35.42
64668;BME280;51077;42.716;23.344;2023-09-19T10:03:32;95584.84;;;27.46;35.56
64668;BME280;51077;42.716;23.344;2023-09-19T10:05:58;95587.97;;;27.39;35.77
64668;BME280;51077;42.716;23.344;2023-09-19T10:08:33;95591.44;;;27.25;35.94
64668;BME280;51077;42.716;23.344;2023-09-19T10:11:00;95582.75;;;27.21;36.04
64668;BME280;51077;42.716;23.344;2023-09-19T10:13:35;95583.25;;;27.06;36.57
64668;BME280;51077;42.716;23.344;2023-09-19T10:16:06;95583.25;;;27.06;36.18
64668;BME280;51077;42.716;23.344;2023-09-19T10:18:33;95582.19;;;26.99;36.53
64668;BME280;51077;42.716;23.344;2023-09-19T10:21:02;95583.03;;;26.90;36.67
64668;BME280;51077;42.716;23.344;2023-09-19T10:23:31;95583.31;;;26.83;37.11
64668;BME280;51077;42.716;23.344;2023-09-19T10:26:01;95575.34;;;26.79;36.88
64668;BME280;51077;42.716;23.344;2023-09-19T10:28:28;95577.31;;;26.76;37.12
64668;BME280;51077;42.716;23.344;2023-09-19T10:30:54;95576.47;;;26.74;37.25
64668;BME280;51077;42.716;23.344;2023-09-19T10:33:24;95576.81;;;26.80;37.08
64668;BME280;51077;42.716;23.344;2023-09-19T10:35:56;95568.50;;;26.82;37.08
64668;BME280;51077;42.716;23.344;2023-09-19T10:38:26;95572.06;;;26.83;36.88
64668;BME280;51077;42.716;23.344;2023-09-19T10:40:54;95569.72;;;26.79;37.01
64668;BME280;51077;42.716;23.344;2023-09-19T10:43:31;95565.31;;;26.76;37.01
64668;BME280;51077;42.716;23.344;2023-09-19T10:46:01;95567.88;;;26.72;37.52
64668;BME280;51077;42.716;23.344;2023-09-19T10:48:29;95561.53;;;26.71;37.22
64668;BME280;51077;42.716;23.344;2023-09-19T10:53:39;95554.44;;;26.70;37.16
64668;BME280;51077;42.716;23.344;2023-09-19T10:56:08;95549.53;;;26.59;37.72
64668;BME280;51077;42.716;23.344;2023-09-19T10:58:42;95552.50;;;26.61;37.88
64668;BME280;51077;42.716;23.344;2023-09-19T11:01:11;95554.19;;;26.66;37.67
64668;BME280;51077;42.716;23.344;2023-09-19T11:03:43;95541.22;;;26.61;37.68
64668;BME280;51077;42.716;23.344;2023-09-19T11:06:15;95541.72;;;26.58;37.81
64668;BME280;51077;42.716;23.344;2023-09-19T11:08:51;95544.53;;;26.58;38.08
64668;BME280;51077;42.716;23.344;2023-09-19T11:30:31;95521.91;;;27.04;37.56
64668;BME280;51077;42.716;23.344;2023-09-19T11:33:17;95519.56;;;27.13;37.75
64668;BME280;51077;42.716;23.344;2023-09-19T11:36:18;95514.16;;;27.17;37.67
64668;BME280;51077;42.716;23.344;2023-09-19T11:39:01;95512.59;;;27.39;37.30
64668;BME280;51077;42.716;23.344;2023-09-19T11:41:41;95507.13;;;27.69;36.92
64668;BME280;51077;42.716;23.344;2023-09-19T11:49:17;95479.03;;;28.10;36.14
64668;BME280;51077;42.716;23.344;2023-09-19T11:51:50;95484.38;;;28.18;36.11
64668;BME280;51077;42.716;23.344;2023-09-19T11:54:20;95481.63;;;28.20;35.99
64668;BME280;51077;42.716;23.344;2023-09-19T11:56:51;95485.41;;;28.24;35.83
64668;BME280;51077;42.716;23.344;2023-09-19T11:59:26;95486.03;;;28.23;35.68
64668;BME280;51077;42.716;23.344;2023-09-19T12:01:55;95475.19;;;28.45;35.25
64668;BME280;51077;42.716;23.344;2023-09-19T12:04:34;95481.66;;;28.91;34.35
64668;BME280;51077;42.716;23.344;2023-09-19T12:07:12;95473.03;;;29.16;34.12
64668;BME280;51077;42.716;23.344;2023-09-19T12:12:23;95467.69;;;29.99;32.81
64668;BME280;51077;42.716;23.344;2023-09-19T12:14:52;95455.00;;;30.32;32.64
64668;BME280;51077;42.716;23.344;2023-09-19T12:17:18;95453.63;;;30.67;32.13
64668;BME280;51077;42.716;23.344;2023-09-19T12:19:53;95450.28;;;31.06;30.87
64668;BME280;51077;42.716;23.344;2023-09-19T12:22:19;95454.84;;;31.31;30.63
64668;BME280;51077;42.716;23.344;2023-09-19T12:24:46;95443.78;;;31.57;30.14
64668;BME280;51077;42.716;23.344;2023-09-19T12:27:12;95438.25;;;31.61;30.37
64668;BME280;51077;42.716;23.344;2023-09-19T12:29:48;95434.16;;;31.84;30.28
64668;BME280;51077;42.716;23.344;2023-09-19T12:32:15;95436.56;;;31.92;29.96
64668;BME280;51077;42.716;23.344;2023-09-19T12:34:52;95435.91;;;32.13;29.34
64668;BME280;51077;42.716;23.344;2023-09-19T12:37:19;95426.44;;;32.07;29.32
64668;BME280;51077;42.716;23.344;2023-09-19T12:39:51;95428.28;;;32.18;29.51
64668;BME280;51077;42.716;23.344;2023-09-19T12:42:22;95425.19;;;32.12;29.30
64668;BME280;51077;42.716;23.344;2023-09-19T12:44:50;95419.38;;;32.27;29.39
64668;BME280;51077;42.716;23.344;2023-09-19T12:47:27;95419.28;;;32.25;28.90
64668;BME280;51077;42.716;23.344;2023-09-19T12:50:13;95423.75;;;32.31;28.99
64668;BME280;51077;42.716;23.344;2023-09-19T12:52:52;95426.16;;;32.38;28.97
64668;BME280;51077;42.716;23.344;2023-09-19T12:55:29;95412.44;;;32.33;29.10
64668;BME280;51077;42.716;23.344;2023-09-19T13:00:32;95408.00;;;32.47;29.17
64668;BME280;51077;42.716;23.344;2023-09-19T13:03:12;95404.22;;;32.41;28.96
64668;BME280;51077;42.716;23.344;2023-09-19T13:05:48;95390.25;;;32.27;28.94
64668;BME280;51077;42.716;23.344;2023-09-19T13:08:35;95392.09;;;31.98;29.47
64668;BME280;51077;42.716;23.344;2023-09-19T13:11:17;95396.94;;;31.76;30.18
64668;BME280;51077;42.716;23.344;2023-09-19T13:13:45;95394.88;;;31.59;30.23
64668;BME280;51077;42.716;23.344;2023-09-19T13:16:15;95395.28;;;31.31;30.03
64668;BME280;51077;42.716;23.344;2023-09-19T13:18:54;95394.94;;;31.23;30.21
64668;BME280;51077;42.716;23.344;2023-09-19T13:21:34;95391.13;;;31.16;30.59
64668;BME280;51077;42.716;23.344;2023-09-19T13:24:19;95386.47;;;31.05;30.88
64668;BME280;51077;42.716;23.344;2023-09-19T13:26:45;95385.72;;;30.87;30.73
64668;BME280;51077;42.716;23.344;2023-09-19T13:29:11;95373.88;;;30.57;31.12
64668;BME280;51077;42.716;23.344;2023-09-19T13:31:36;95365.50;;;30.43;31.88
64668;BME280;51077;42.716;23.344;2023-09-19T13:34:06;95366.81;;;30.40;32.03
64668;BME280;51077;42.716;23.344;2023-09-19T13:36:32;95366.16;;;30.41;31.79
64668;BME280;51077;42.716;23.344;2023-09-19T13:38:57;95371.00;;;30.39;31.63
64668;BME280;51077;42.716;23.344;2023-09-19T13:41:24;95371.75;;;30.39;32.05
64668;BME280;51077;42.716;23.344;2023-09-19T13:43:49;95372.78;;;30.30;32.02
64668;BME280;51077;42.716;23.344;2023-09-19T13:46:15;95368.16;;;30.21;32.26
64668;BME280;51077;42.716;23.344;2023-09-19T13:48:41;95368.78;;;30.19;32.51
64668;BME280;51077;42.716;23.344;2023-09-19T13:51:07;95367.78;;;30.13;32.71
64668;BME280;51077;42.716;23.344;2023-09-19T13:53:32;95360.41;;;30.05;32.79